sensor_id;sensor_type;location;lat;lon;timestamp;P1;durP1;ratioP1;P2;durP2;ratioP2
12476;SDS011;6303;51.504;6.300;2023-08-31T00:01:38;2.03;;;1.20;;
12476;SDS011;6303;51.504;6.300;2023-08-31T00:04:05;1.15;;;1.05;;
12476;SDS011;6303;51.504;6.300;2023-08-31T00:06:33;2.00;;;1.20;;
12476;SDS011;6303;51.504;6.300;2023-08-31T00:09:00;1.73;;;1.45;;
12476;SDS011;6303;51.504;6.300;2023-08-31T00:11:31;1.10;;;0.98;;
12476;SDS011;6303;51.504;6.300;2023-08-31T00:13:58;1.75;;;1.20;;
12476;SDS011;6303;51.504;6.300;2023-08-31T00:16:26;1.35;;;1.20;;
12476;SDS011;6303;51.504;6.300;2023-08-31T00:18:53;1.80;;;1.30;;
12476;SDS011;6303;51.504;6.300;2023-08-31T00:21:20;1.27;;;1.20;;
12476;SDS011;6303;51.504;6.300;2023-08-31T00:23:47;1.30;;;1.20;;
12476;SDS011;6303;51.504;6.300;2023-08-31T00:26:15;1.88;;;1.17;;
12476;SDS011;6303;51.504;6.300;2023-08-31T00:28:47;2.67;;;1.30;;
12476;SDS011;6303;51.504;6.300;2023-08-31T00:31:15;1.77;;;1.10;;
12476;SDS011;6303;51.504;6.300;2023-08-31T00:33:42;1.60;;;1.30;;
12476;SDS011;6303;51.504;6.300;2023-08-31T00:36:09;1.17;;;1.05;;
12476;SDS011;6303;51.504;6.300;2023-08-31T00:38:36;1.52;;;1.10;;
12476;SDS011;6303;51.504;6.300;2023-08-31T00:41:04;1.65;;;1.40;;
12476;SDS011;6303;51.504;6.300;2023-08-31T00:43:31;1.42;;;1.30;;
12476;SDS011;6303;51.504;6.300;2023-08-31T00:46:00;1.55;;;1.08;;
12476;SDS011;6303;51.504;6.300;2023-08-31T00:48:29;1.67;;;1.30;;
12476;SDS011;6303;51.504;6.300;2023-08-31T00:50:56;1.40;;;1.27;;
12476;SDS011;6303;51.504;6.300;2023-08-31T00:53:26;1.25;;;1.15;;
12476;SDS011;6303;51.504;6.300;2023-08-31T00:55:53;1.42;;;1.20;;
12476;SDS011;6303;51.504;6.300;2023-08-31T00:58:20;1.27;;;1.10;;
12476;SDS011;6303;51.504;6.300;2023-08-31T01:00:50;1.45;;;1.30;;
12476;SDS011;6303;51.504;6.300;2023-08-31T01:03:27;1.35;;;1.20;;
12476;SDS011;6303;51.504;6.300;2023-08-31T01:06:06;1.48;;;1.15;;
12476;SDS011;6303;51.504;6.300;2023-08-31T01:08:40;1.15;;;1.02;;
12476;SDS011;6303;51.504;6.300;2023-08-31T01:11:18;1.20;;;1.10;;
12476;SDS011;6303;51.504;6.300;2023-08-31T01:13:51;1.92;;;1.30;;
12476;SDS011;6303;51.504;6.300;2023-08-31T01:16:26;2.20;;;1.30;;
12476;SDS011;6303;51.504;6.300;2023-08-31T01:18:56;1.52;;;1.20;;
12476;SDS011;6303;51.504;6.300;2023-08-31T01:21:24;1.27;;;1.10;;
12476;SDS011;6303;51.504;6.300;2023-08-31T01:23:57;1.88;;;1.20;;
12476;SDS011;6303;51.504;6.300;2023-08-31T01:26:25;1.40;;;1.23;;
12476;SDS011;6303;51.504;6.300;2023-08-31T01:28:52;1.30;;;1.20;;
12476;SDS011;6303;51.504;6.300;2023-08-31T01:31:21;1.45;;;1.20;;
12476;SDS011;6303;51.504;6.300;2023-08-31T01:33:48;1.73;;;1.38;;
12476;SDS011;6303;51.504;6.300;2023-08-31T01:36:18;2.08;;;1.30;;
12476;SDS011;6303;51.504;6.300;2023-08-31T01:38:53;1.20;;;1.13;;
12476;SDS011;6303;51.504;6.300;2023-08-31T01:41:26;2.47;;;1.40;;
12476;SDS011;6303;51.504;6.300;2023-08-31T01:43:57;1.38;;;1.10;;
12476;SDS011;6303;51.504;6.300;2023-08-31T01:46:25;1.23;;;1.10;;
12476;SDS011;6303;51.504;6.300;2023-08-31T01:48:52;1.40;;;1.30;;
12476;SDS011;6303;51.504;6.300;2023-08-31T01:51:19;1.40;;;1.30;;
12476;SDS011;6303;51.504;6.300;2023-08-31T01:53:46;1.50;;;1.40;;
12476;SDS011;6303;51.504;6.300;2023-08-31T01:56:14;1.27;;;1.10;;
12476;SDS011;6303;51.504;6.300;2023-08-31T01:58:42;1.27;;;1.17;;
12476;SDS011;6303;51.504;6.300;2023-08-31T02:01:09;2.15;;;1.23;;
12476;SDS011;6303;51.504;6.300;2023-08-31T02:03:38;1.65;;;1.40;;
12476;SDS011;6303;51.504;6.300;2023-08-31T02:06:05;1.63;;;1.20;;
12476;SDS011;6303;51.504;6.300;2023-08-31T02:08:33;1.00;;;1.00;;
12476;SDS011;6303;51.504;6.300;2023-08-31T02:11:00;1.67;;;1.25;;
12476;SDS011;6303;51.504;6.300;2023-08-31T02:13:27;1.35;;;1.25;;
12476;SDS011;6303;51.504;6.300;2023-08-31T02:15:55;1.55;;;1.45;;
12476;SDS011;6303;51.504;6.300;2023-08-31T02:18:22;1.52;;;1.20;;
12476;SDS011;6303;51.504;6.300;2023-08-31T02:20:51;1.27;;;1.17;;
12476;SDS011;6303;51.504;6.300;2023-08-31T02:23:18;2.00;;;1.10;;
12476;SDS011;6303;51.504;6.300;2023-08-31T02:25:45;1.40;;;1.30;;
12476;SDS011;6303;51.504;6.300;2023-08-31T02:28:14;1.45;;;1.10;;
12476;SDS011;6303;51.504;6.300;2023-08-31T02:30:43;1.95;;;1.13;;
12476;SDS011;6303;51.504;6.300;2023-08-31T02:33:12;1.35;;;1.20;;
12476;SDS011;6303;51.504;6.300;2023-08-31T02:35:39;1.73;;;1.27;;
12476;SDS011;6303;51.504;6.300;2023-08-31T02:38:06;1.77;;;1.20;;
12476;SDS011;6303;51.504;6.300;2023-08-31T02:40:34;2.40;;;1.27;;
12476;SDS011;6303;51.504;6.300;2023-08-31T02:43:01;2.05;;;1.27;;
12476;SDS011;6303;51.504;6.300;2023-08-31T02:45:28;1.13;;;1.10;;
12476;SDS011;6303;51.504;6.300;2023-08-31T02:47:55;1.40;;;1.30;;
12476;SDS011;6303;51.504;6.300;2023-08-31T02:50:23;1.63;;;1.40;;
12476;SDS011;6303;51.504;6.300;2023-08-31T02:52:50;1.33;;;1.20;;
12476;SDS011;6303;51.504;6.300;2023-08-31T02:55:18;1.20;;;1.10;;
12476;SDS011;6303;51.504;6.300;2023-08-31T02:57:46;1.10;;;1.00;;
12476;SDS011;6303;51.504;6.300;2023-08-31T03:00:14;1.30;;;1.20;;
12476;SDS011;6303;51.504;6.300;2023-08-31T03:02:41;1.00;;;1.00;;
12476;SDS011;6303;51.504;6.300;2023-08-31T03:05:09;1.17;;;1.10;;
12476;SDS011;6303;51.504;6.300;2023-08-31T03:07:38;1.80;;;1.20;;
12476;SDS011;6303;51.504;6.300;2023-08-31T03:10:06;1.30;;;1.20;;
12476;SDS011;6303;51.504;6.300;2023-08-31T03:12:33;1.20;;;1.10;;
12476;SDS011;6303;51.504;6.300;2023-08-31T03:15:00;1.40;;;1.30;;
12476;SDS011;6303;51.504;6.300;2023-08-31T03:17:27;1.40;;;1.20;;
12476;SDS011;6303;51.504;6.300;2023-08-31T03:19:55;1.27;;;1.20;;
12476;SDS011;6303;51.504;6.300;2023-08-31T03:22:22;1.25;;;1.05;;
12476;SDS011;6303;51.504;6.300;2023-08-31T03:24:51;1.20;;;1.20;;
12476;SDS011;6303;51.504;6.300;2023-08-31T03:27:21;1.42;;;1.30;;
12476;SDS011;6303;51.504;6.300;2023-08-31T03:29:48;1.30;;;1.20;;
12476;SDS011;6303;51.504;6.300;2023-08-31T03:32:16;1.10;;;1.00;;
12476;SDS011;6303;51.504;6.300;2023-08-31T03:34:43;1.30;;;1.20;;
12476;SDS011;6303;51.504;6.300;2023-08-31T03:37:10;1.35;;;1.25;;
12476;SDS011;6303;51.504;6.300;2023-08-31T03:39:38;1.48;;;1.20;;
12476;SDS011;6303;51.504;6.300;2023-08-31T03:42:08;1.67;;;1.30;;
12476;SDS011;6303;51.504;6.300;2023-08-31T03:44:35;1.20;;;1.10;;
12476;SDS011;6303;51.504;6.300;2023-08-31T03:47:03;1.13;;;1.13;;
12476;SDS011;6303;51.504;6.300;2023-08-31T03:49:29;1.33;;;1.10;;
12476;SDS011;6303;51.504;6.300;2023-08-31T03:51:57;1.23;;;1.10;;
12476;SDS011;6303;51.504;6.300;2023-08-31T03:54:24;1.20;;;1.10;;
12476;SDS011;6303;51.504;6.300;2023-08-31T03:56:51;1.20;;;1.10;;
12476;SDS011;6303;51.504;6.300;2023-08-31T03:59:20;1.30;;;1.20;;
12476;SDS011;6303;51.504;6.300;2023-08-31T04:01:47;1.30;;;1.20;;
12476;SDS011;6303;51.504;6.300;2023-08-31T04:04:14;1.30;;;1.20;;
12476;SDS011;6303;51.504;6.300;2023-08-31T04:06:41;1.48;;;1.27;;
12476;SDS011;6303;51.504;6.300;2023-08-31T04:09:08;1.05;;;0.98;;
12476;SDS011;6303;51.504;6.300;2023-08-31T04:11:35;1.23;;;1.13;;
12476;SDS011;6303;51.504;6.300;2023-08-31T04:14:02;1.33;;;1.08;;
12476;SDS011;6303;51.504;6.300;2023-08-31T04:16:31;1.20;;;1.10;;
12476;SDS011;6303;51.504;6.300;2023-08-31T04:18:58;1.60;;;1.23;;
12476;SDS011;6303;51.504;6.300;2023-08-31T04:21:25;1.42;;;1.30;;
12476;SDS011;6303;51.504;6.300;2023-08-31T04:23:52;1.05;;;1.00;;
12476;SDS011;6303;51.504;6.300;2023-08-31T04:26:19;1.48;;;1.38;;
12476;SDS011;6303;51.504;6.300;2023-08-31T04:28:46;1.80;;;1.17;;
12476;SDS011;6303;51.504;6.300;2023-08-31T04:31:13;2.25;;;1.33;;
12476;SDS011;6303;51.504;6.300;2023-08-31T04:33:42;1.52;;;1.13;;
12476;SDS011;6303;51.504;6.300;2023-08-31T04:36:09;2.50;;;1.35;;
12476;SDS011;6303;51.504;6.300;2023-08-31T04:38:37;1.50;;;1.20;;
12476;SDS011;6303;51.504;6.300;2023-08-31T04:41:04;1.50;;;1.25;;
12476;SDS011;6303;51.504;6.300;2023-08-31T04:43:31;1.40;;;1.30;;
12476;SDS011;6303;51.504;6.300;2023-08-31T04:45:59;1.50;;;1.40;;
12476;SDS011;6303;51.504;6.300;2023-08-31T04:48:26;1.38;;;1.27;;
12476;SDS011;6303;51.504;6.300;2023-08-31T04:50:56;1.70;;;1.40;;
12476;SDS011;6303;51.504;6.300;2023-08-31T04:53:24;3.15;;;1.42;;
12476;SDS011;6303;51.504;6.300;2023-08-31T04:55:51;2.15;;;1.40;;
12476;SDS011;6303;51.504;6.300;2023-08-31T04:58:18;1.30;;;1.20;;
12476;SDS011;6303;51.504;6.300;2023-08-31T05:00:45;2.17;;;1.50;;
12476;SDS011;6303;51.504;6.300;2023-08-31T05:03:13;2.83;;;1.42;;
12476;SDS011;6303;51.504;6.300;2023-08-31T05:05:40;1.52;;;1.40;;
12476;SDS011;6303;51.504;6.300;2023-08-31T05:08:09;1.98;;;1.50;;
12476;SDS011;6303;51.504;6.300;2023-08-31T05:10:36;1.67;;;1.58;;
12476;SDS011;6303;51.504;6.300;2023-08-31T05:13:03;2.50;;;1.70;;
12476;SDS011;6303;51.504;6.300;2023-08-31T05:15:30;2.95;;;1.60;;
12476;SDS011;6303;51.504;6.300;2023-08-31T05:17:59;2.15;;;1.65;;
12476;SDS011;6303;51.504;6.300;2023-08-31T05:20:26;3.03;;;1.50;;
12476;SDS011;6303;51.504;6.300;2023-08-31T05:22:53;2.45;;;1.40;;
12476;SDS011;6303;51.504;6.300;2023-08-31T05:25:21;2.67;;;1.45;;
12476;SDS011;6303;51.504;6.300;2023-08-31T05:27:48;3.80;;;1.50;;
12476;SDS011;6303;51.504;6.300;2023-08-31T05:30:15;10.95;;;3.95;;
12476;SDS011;6303;51.504;6.300;2023-08-31T05:32:42;9.88;;;3.45;;
12476;SDS011;6303;51.504;6.300;2023-08-31T05:35:09;10.73;;;3.50;;
12476;SDS011;6303;51.504;6.300;2023-08-31T05:37:36;8.88;;;2.90;;
12476;SDS011;6303;51.504;6.300;2023-08-31T05:40:04;6.10;;;2.53;;
12476;SDS011;6303;51.504;6.300;2023-08-31T05:42:37;5.00;;;2.67;;
12476;SDS011;6303;51.504;6.300;2023-08-31T05:45:04;3.42;;;2.35;;
12476;SDS011;6303;51.504;6.300;2023-08-31T05:47:32;4.95;;;2.30;;
12476;SDS011;6303;51.504;6.300;2023-08-31T05:50:00;3.03;;;2.10;;
12476;SDS011;6303;51.504;6.300;2023-08-31T05:52:27;2.47;;;1.80;;
12476;SDS011;6303;51.504;6.300;2023-08-31T05:54:54;4.10;;;2.08;;
12476;SDS011;6303;51.504;6.300;2023-08-31T05:57:21;2.85;;;1.95;;
12476;SDS011;6303;51.504;6.300;2023-08-31T05:59:50;4.63;;;2.10;;
12476;SDS011;6303;51.504;6.300;2023-08-31T06:02:17;2.97;;;1.70;;
12476;SDS011;6303;51.504;6.300;2023-08-31T06:04:44;3.33;;;1.83;;
12476;SDS011;6303;51.504;6.300;2023-08-31T06:07:11;1.90;;;1.80;;
12476;SDS011;6303;51.504;6.300;2023-08-31T06:09:38;2.10;;;1.80;;
12476;SDS011;6303;51.504;6.300;2023-08-31T06:12:05;2.20;;;1.98;;
12476;SDS011;6303;51.504;6.300;2023-08-31T06:14:33;3.10;;;1.63;;
12476;SDS011;6303;51.504;6.300;2023-08-31T06:17:01;3.25;;;1.80;;
12476;SDS011;6303;51.504;6.300;2023-08-31T06:19:29;3.28;;;1.90;;
12476;SDS011;6303;51.504;6.300;2023-08-31T06:21:56;2.67;;;1.73;;
12476;SDS011;6303;51.504;6.300;2023-08-31T06:24:23;2.50;;;1.98;;
12476;SDS011;6303;51.504;6.300;2023-08-31T06:26:50;3.22;;;2.10;;
12476;SDS011;6303;51.504;6.300;2023-08-31T06:29:20;2.42;;;1.80;;
12476;SDS011;6303;51.504;6.300;2023-08-31T06:31:47;2.97;;;2.03;;
12476;SDS011;6303;51.504;6.300;2023-08-31T06:34:15;2.33;;;1.95;;
12476;SDS011;6303;51.504;6.300;2023-08-31T06:36:42;2.22;;;1.83;;
12476;SDS011;6303;51.504;6.300;2023-08-31T06:39:10;3.10;;;2.10;;
12476;SDS011;6303;51.504;6.300;2023-08-31T06:41:37;2.15;;;1.88;;
12476;SDS011;6303;51.504;6.300;2023-08-31T06:44:04;2.78;;;1.80;;
12476;SDS011;6303;51.504;6.300;2023-08-31T06:46:31;2.30;;;1.65;;
12476;SDS011;6303;51.504;6.300;2023-08-31T06:49:02;3.35;;;1.88;;
12476;SDS011;6303;51.504;6.300;2023-08-31T06:51:31;1.75;;;1.60;;
12476;SDS011;6303;51.504;6.300;2023-08-31T06:53:58;3.75;;;1.67;;
12476;SDS011;6303;51.504;6.300;2023-08-31T06:56:31;2.75;;;1.63;;
12476;SDS011;6303;51.504;6.300;2023-08-31T06:58:59;2.55;;;1.50;;
12476;SDS011;6303;51.504;6.300;2023-08-31T07:01:27;3.47;;;1.80;;
12476;SDS011;6303;51.504;6.300;2023-08-31T07:03:55;2.83;;;1.85;;
12476;SDS011;6303;51.504;6.300;2023-08-31T07:06:22;2.20;;;1.70;;
12476;SDS011;6303;51.504;6.300;2023-08-31T07:08:50;1.60;;;1.50;;
12476;SDS011;6303;51.504;6.300;2023-08-31T07:11:18;2.42;;;1.75;;
12476;SDS011;6303;51.504;6.300;2023-08-31T07:13:45;2.58;;;2.08;;
12476;SDS011;6303;51.504;6.300;2023-08-31T07:16:12;3.22;;;2.22;;
12476;SDS011;6303;51.504;6.300;2023-08-31T07:18:39;2.95;;;2.00;;
12476;SDS011;6303;51.504;6.300;2023-08-31T07:21:06;2.85;;;2.05;;
12476;SDS011;6303;51.504;6.300;2023-08-31T07:23:33;3.10;;;2.05;;
12476;SDS011;6303;51.504;6.300;2023-08-31T07:26:02;4.25;;;1.92;;
12476;SDS011;6303;51.504;6.300;2023-08-31T07:28:30;2.58;;;2.10;;
12476;SDS011;6303;51.504;6.300;2023-08-31T07:31:01;3.08;;;2.03;;
12476;SDS011;6303;51.504;6.300;2023-08-31T07:33:29;3.17;;;2.35;;
12476;SDS011;6303;51.504;6.300;2023-08-31T07:35:57;2.75;;;2.08;;
12476;SDS011;6303;51.504;6.300;2023-08-31T07:38:24;2.97;;;2.15;;
12476;SDS011;6303;51.504;6.300;2023-08-31T07:40:52;2.97;;;2.03;;
12476;SDS011;6303;51.504;6.300;2023-08-31T07:43:20;2.60;;;2.40;;
12476;SDS011;6303;51.504;6.300;2023-08-31T07:45:48;2.25;;;2.03;;
12476;SDS011;6303;51.504;6.300;2023-08-31T07:48:15;5.07;;;2.20;;
12476;SDS011;6303;51.504;6.300;2023-08-31T07:50:42;2.97;;;2.45;;
12476;SDS011;6303;51.504;6.300;2023-08-31T07:53:10;3.50;;;2.28;;
12476;SDS011;6303;51.504;6.300;2023-08-31T07:55:38;3.15;;;2.42;;
12476;SDS011;6303;51.504;6.300;2023-08-31T07:58:06;5.40;;;2.60;;
12476;SDS011;6303;51.504;6.300;2023-08-31T08:00:34;5.85;;;2.75;;
12476;SDS011;6303;51.504;6.300;2023-08-31T08:03:01;3.05;;;2.38;;
12476;SDS011;6303;51.504;6.300;2023-08-31T08:05:28;4.22;;;2.50;;
12476;SDS011;6303;51.504;6.300;2023-08-31T08:07:56;2.85;;;2.17;;
12476;SDS011;6303;51.504;6.300;2023-08-31T08:10:23;4.53;;;2.42;;
12476;SDS011;6303;51.504;6.300;2023-08-31T08:12:50;3.90;;;2.45;;
12476;SDS011;6303;51.504;6.300;2023-08-31T08:15:17;2.72;;;2.50;;
12476;SDS011;6303;51.504;6.300;2023-08-31T08:17:45;2.42;;;2.10;;
12476;SDS011;6303;51.504;6.300;2023-08-31T08:20:13;5.00;;;2.20;;
12476;SDS011;6303;51.504;6.300;2023-08-31T08:22:40;4.95;;;2.92;;
12476;SDS011;6303;51.504;6.300;2023-08-31T08:25:08;2.88;;;2.35;;
12476;SDS011;6303;51.504;6.300;2023-08-31T08:27:35;2.80;;;2.15;;
12476;SDS011;6303;51.504;6.300;2023-08-31T08:30:03;3.92;;;2.40;;
12476;SDS011;6303;51.504;6.300;2023-08-31T08:32:30;3.83;;;2.47;;
12476;SDS011;6303;51.504;6.300;2023-08-31T08:35:01;3.60;;;2.40;;
12476;SDS011;6303;51.504;6.300;2023-08-31T08:37:28;3.83;;;2.70;;
12476;SDS011;6303;51.504;6.300;2023-08-31T08:39:57;6.00;;;2.50;;
12476;SDS011;6303;51.504;6.300;2023-08-31T08:42:24;3.75;;;2.70;;
12476;SDS011;6303;51.504;6.300;2023-08-31T08:44:52;3.53;;;2.33;;
12476;SDS011;6303;51.504;6.300;2023-08-31T08:47:19;3.53;;;2.50;;
12476;SDS011;6303;51.504;6.300;2023-08-31T08:49:47;3.95;;;2.80;;
12476;SDS011;6303;51.504;6.300;2023-08-31T08:52:15;3.63;;;2.53;;
12476;SDS011;6303;51.504;6.300;2023-08-31T08:54:42;4.85;;;2.40;;
12476;SDS011;6303;51.504;6.300;2023-08-31T08:57:10;6.05;;;2.53;;
12476;SDS011;6303;51.504;6.300;2023-08-31T08:59:37;3.70;;;2.65;;
12476;SDS011;6303;51.504;6.300;2023-08-31T09:02:05;5.07;;;3.05;;
12476;SDS011;6303;51.504;6.300;2023-08-31T09:04:34;4.90;;;2.90;;
12476;SDS011;6303;51.504;6.300;2023-08-31T09:07:01;4.75;;;2.78;;
12476;SDS011;6303;51.504;6.300;2023-08-31T09:09:30;4.45;;;2.75;;
12476;SDS011;6303;51.504;6.300;2023-08-31T09:12:05;4.78;;;2.47;;
12476;SDS011;6303;51.504;6.300;2023-08-31T09:14:33;4.00;;;2.50;;
12476;SDS011;6303;51.504;6.300;2023-08-31T09:17:00;4.50;;;2.30;;
12476;SDS011;6303;51.504;6.300;2023-08-31T09:19:27;3.35;;;2.25;;
12476;SDS011;6303;51.504;6.300;2023-08-31T09:21:55;4.20;;;2.67;;
12476;SDS011;6303;51.504;6.300;2023-08-31T09:24:23;4.22;;;2.38;;
12476;SDS011;6303;51.504;6.300;2023-08-31T09:26:54;5.75;;;2.75;;
12476;SDS011;6303;51.504;6.300;2023-08-31T09:29:23;4.65;;;2.50;;
12476;SDS011;6303;51.504;6.300;2023-08-31T09:31:50;3.63;;;2.05;;
12476;SDS011;6303;51.504;6.300;2023-08-31T09:34:17;4.40;;;2.55;;
12476;SDS011;6303;51.504;6.300;2023-08-31T09:36:44;4.28;;;2.17;;
12476;SDS011;6303;51.504;6.300;2023-08-31T09:39:12;5.63;;;2.63;;
12476;SDS011;6303;51.504;6.300;2023-08-31T09:41:55;5.30;;;2.50;;
12476;SDS011;6303;51.504;6.300;2023-08-31T09:44:22;5.95;;;3.03;;
12476;SDS011;6303;51.504;6.300;2023-08-31T09:46:49;2.85;;;2.22;;
12476;SDS011;6303;51.504;6.300;2023-08-31T09:49:17;3.92;;;2.10;;
12476;SDS011;6303;51.504;6.300;2023-08-31T09:51:48;3.63;;;2.38;;
12476;SDS011;6303;51.504;6.300;2023-08-31T09:54:16;4.55;;;2.25;;
12476;SDS011;6303;51.504;6.300;2023-08-31T09:56:45;3.70;;;2.40;;
12476;SDS011;6303;51.504;6.300;2023-08-31T09:59:14;3.53;;;2.40;;
12476;SDS011;6303;51.504;6.300;2023-08-31T10:01:44;4.78;;;2.65;;
12476;SDS011;6303;51.504;6.300;2023-08-31T10:04:12;4.10;;;2.65;;
12476;SDS011;6303;51.504;6.300;2023-08-31T10:06:40;4.30;;;2.80;;
12476;SDS011;6303;51.504;6.300;2023-08-31T10:09:09;3.75;;;2.55;;
12476;SDS011;6303;51.504;6.300;2023-08-31T10:11:37;4.47;;;2.80;;
12476;SDS011;6303;51.504;6.300;2023-08-31T10:14:05;3.53;;;2.20;;
12476;SDS011;6303;51.504;6.300;2023-08-31T10:16:33;2.20;;;2.00;;
12476;SDS011;6303;51.504;6.300;2023-08-31T10:19:02;2.53;;;2.17;;
12476;SDS011;6303;51.504;6.300;2023-08-31T10:21:29;5.20;;;2.40;;
12476;SDS011;6303;51.504;6.300;2023-08-31T10:23:56;4.25;;;2.15;;
12476;SDS011;6303;51.504;6.300;2023-08-31T10:26:23;5.43;;;2.33;;
12476;SDS011;6303;51.504;6.300;2023-08-31T10:28:51;5.93;;;2.47;;
12476;SDS011;6303;51.504;6.300;2023-08-31T10:31:19;4.03;;;2.20;;
12476;SDS011;6303;51.504;6.300;2023-08-31T10:33:58;6.78;;;2.50;;
12476;SDS011;6303;51.504;6.300;2023-08-31T10:36:35;4.53;;;2.20;;
12476;SDS011;6303;51.504;6.300;2023-08-31T10:39:10;3.22;;;2.47;;
12476;SDS011;6303;51.504;6.300;2023-08-31T10:41:39;3.20;;;2.55;;
12476;SDS011;6303;51.504;6.300;2023-08-31T10:44:19;3.97;;;2.67;;
12476;SDS011;6303;51.504;6.300;2023-08-31T10:46:46;2.50;;;2.13;;
12476;SDS011;6303;51.504;6.300;2023-08-31T10:49:18;4.68;;;2.30;;
12476;SDS011;6303;51.504;6.300;2023-08-31T10:51:46;3.53;;;2.25;;
12476;SDS011;6303;51.504;6.300;2023-08-31T10:54:19;3.58;;;1.92;;
12476;SDS011;6303;51.504;6.300;2023-08-31T10:59:43;2.72;;;1.83;;
12476;SDS011;6303;51.504;6.300;2023-08-31T11:05:08;2.20;;;1.80;;
12476;SDS011;6303;51.504;6.300;2023-08-31T11:07:37;3.15;;;1.80;;
12476;SDS011;6303;51.504;6.300;2023-08-31T11:10:09;2.35;;;1.60;;
12476;SDS011;6303;51.504;6.300;2023-08-31T11:12:42;3.00;;;1.80;;
12476;SDS011;6303;51.504;6.300;2023-08-31T11:15:12;2.50;;;1.88;;
12476;SDS011;6303;51.504;6.300;2023-08-31T11:17:40;3.30;;;1.70;;
12476;SDS011;6303;51.504;6.300;2023-08-31T11:20:12;3.35;;;1.70;;
12476;SDS011;6303;51.504;6.300;2023-08-31T11:22:42;2.42;;;1.80;;
12476;SDS011;6303;51.504;6.300;2023-08-31T11:25:12;3.05;;;1.70;;
12476;SDS011;6303;51.504;6.300;2023-08-31T11:27:40;2.67;;;1.55;;
12476;SDS011;6303;51.504;6.300;2023-08-31T11:30:14;3.92;;;1.80;;
12476;SDS011;6303;51.504;6.300;2023-08-31T11:32:45;4.00;;;1.77;;
12476;SDS011;6303;51.504;6.300;2023-08-31T11:35:15;3.72;;;1.75;;
12476;SDS011;6303;51.504;6.300;2023-08-31T11:37:42;2.55;;;1.70;;
12476;SDS011;6303;51.504;6.300;2023-08-31T11:40:10;2.78;;;1.50;;
12476;SDS011;6303;51.504;6.300;2023-08-31T11:42:39;3.05;;;1.70;;
12476;SDS011;6303;51.504;6.300;2023-08-31T11:45:07;2.08;;;1.60;;
12476;SDS011;6303;51.504;6.300;2023-08-31T11:47:36;5.25;;;1.80;;
12476;SDS011;6303;51.504;6.300;2023-08-31T11:50:05;3.15;;;1.77;;
12476;SDS011;6303;51.504;6.300;2023-08-31T11:52:35;2.30;;;1.50;;
12476;SDS011;6303;51.504;6.300;2023-08-31T11:55:02;3.08;;;1.60;;
12476;SDS011;6303;51.504;6.300;2023-08-31T11:57:36;3.20;;;1.60;;
12476;SDS011;6303;51.504;6.300;2023-08-31T12:00:03;4.05;;;1.80;;
12476;SDS011;6303;51.504;6.300;2023-08-31T12:02:34;2.28;;;1.65;;
12476;SDS011;6303;51.504;6.300;2023-08-31T12:05:01;3.65;;;1.70;;
12476;SDS011;6303;51.504;6.300;2023-08-31T12:07:30;2.25;;;1.63;;
12476;SDS011;6303;51.504;6.300;2023-08-31T12:10:03;3.60;;;1.80;;
12476;SDS011;6303;51.504;6.300;2023-08-31T12:12:30;4.57;;;2.15;;
12476;SDS011;6303;51.504;6.300;2023-08-31T12:15:00;5.45;;;2.05;;
12476;SDS011;6303;51.504;6.300;2023-08-31T12:17:29;2.95;;;1.75;;
12476;SDS011;6303;51.504;6.300;2023-08-31T12:20:01;3.28;;;1.67;;
12476;SDS011;6303;51.504;6.300;2023-08-31T12:22:31;3.80;;;1.80;;
12476;SDS011;6303;51.504;6.300;2023-08-31T12:24:58;2.20;;;1.80;;
12476;SDS011;6303;51.504;6.300;2023-08-31T12:27:27;2.33;;;1.70;;
12476;SDS011;6303;51.504;6.300;2023-08-31T12:29:55;6.30;;;2.03;;
12476;SDS011;6303;51.504;6.300;2023-08-31T12:32:22;4.15;;;2.15;;
12476;SDS011;6303;51.504;6.300;2023-08-31T12:34:49;2.42;;;1.52;;
12476;SDS011;6303;51.504;6.300;2023-08-31T12:37:16;2.45;;;1.65;;
12476;SDS011;6303;51.504;6.300;2023-08-31T12:39:43;4.18;;;2.00;;
12476;SDS011;6303;51.504;6.300;2023-08-31T12:42:11;2.28;;;1.80;;
12476;SDS011;6303;51.504;6.300;2023-08-31T12:44:39;3.67;;;1.90;;
12476;SDS011;6303;51.504;6.300;2023-08-31T12:47:06;3.35;;;1.70;;
12476;SDS011;6303;51.504;6.300;2023-08-31T12:49:33;3.60;;;1.80;;
12476;SDS011;6303;51.504;6.300;2023-08-31T12:52:00;2.95;;;1.70;;
12476;SDS011;6303;51.504;6.300;2023-08-31T12:54:28;3.60;;;2.38;;
12476;SDS011;6303;51.504;6.300;2023-08-31T12:56:55;3.13;;;2.10;;
12476;SDS011;6303;51.504;6.300;2023-08-31T12:59:22;3.15;;;1.90;;
12476;SDS011;6303;51.504;6.300;2023-08-31T13:01:50;5.57;;;2.05;;
12476;SDS011;6303;51.504;6.300;2023-08-31T13:04:18;3.40;;;1.90;;
12476;SDS011;6303;51.504;6.300;2023-08-31T13:06:45;2.55;;;2.10;;
12476;SDS011;6303;51.504;6.300;2023-08-31T13:09:13;3.50;;;1.90;;
12476;SDS011;6303;51.504;6.300;2023-08-31T13:11:40;2.45;;;1.90;;
12476;SDS011;6303;51.504;6.300;2023-08-31T13:14:07;6.05;;;2.00;;
12476;SDS011;6303;51.504;6.300;2023-08-31T13:16:34;2.67;;;1.85;;
12476;SDS011;6303;51.504;6.300;2023-08-31T13:19:06;3.40;;;1.85;;
12476;SDS011;6303;51.504;6.300;2023-08-31T13:21:33;4.32;;;1.80;;
12476;SDS011;6303;51.504;6.300;2023-08-31T13:24:00;2.95;;;1.98;;
12476;SDS011;6303;51.504;6.300;2023-08-31T13:26:27;3.25;;;2.20;;
12476;SDS011;6303;51.504;6.300;2023-08-31T13:28:54;2.95;;;2.30;;
12476;SDS011;6303;51.504;6.300;2023-08-31T13:31:21;4.30;;;2.88;;
12476;SDS011;6303;51.504;6.300;2023-08-31T13:33:48;6.53;;;2.60;;
12476;SDS011;6303;51.504;6.300;2023-08-31T13:36:17;4.45;;;2.90;;
12476;SDS011;6303;51.504;6.300;2023-08-31T13:38:44;4.60;;;2.88;;
12476;SDS011;6303;51.504;6.300;2023-08-31T13:41:11;4.15;;;2.83;;
12476;SDS011;6303;51.504;6.300;2023-08-31T13:43:38;4.22;;;2.70;;
12476;SDS011;6303;51.504;6.300;2023-08-31T13:46:05;3.45;;;2.55;;
12476;SDS011;6303;51.504;6.300;2023-08-31T13:48:32;3.65;;;2.40;;
12476;SDS011;6303;51.504;6.300;2023-08-31T13:50:59;5.53;;;2.78;;
12476;SDS011;6303;51.504;6.300;2023-08-31T13:53:28;3.75;;;2.67;;
12476;SDS011;6303;51.504;6.300;2023-08-31T13:55:55;3.67;;;2.72;;
12476;SDS011;6303;51.504;6.300;2023-08-31T13:58:22;2.88;;;2.55;;
12476;SDS011;6303;51.504;6.300;2023-08-31T14:00:49;3.47;;;2.60;;
12476;SDS011;6303;51.504;6.300;2023-08-31T14:03:18;3.65;;;2.50;;
12476;SDS011;6303;51.504;6.300;2023-08-31T14:05:47;3.53;;;2.50;;
12476;SDS011;6303;51.504;6.300;2023-08-31T14:08:15;4.45;;;2.50;;
12476;SDS011;6303;51.504;6.300;2023-08-31T14:10:43;4.90;;;2.58;;
12476;SDS011;6303;51.504;6.300;2023-08-31T14:13:10;2.97;;;2.30;;
12476;SDS011;6303;51.504;6.300;2023-08-31T14:15:37;4.13;;;2.40;;
12476;SDS011;6303;51.504;6.300;2023-08-31T14:18:11;2.65;;;2.10;;
12476;SDS011;6303;51.504;6.300;2023-08-31T14:20:38;3.45;;;2.10;;
12476;SDS011;6303;51.504;6.300;2023-08-31T14:23:05;2.25;;;2.05;;
12476;SDS011;6303;51.504;6.300;2023-08-31T14:25:33;3.42;;;2.13;;
12476;SDS011;6303;51.504;6.300;2023-08-31T14:28:03;2.92;;;1.60;;
12476;SDS011;6303;51.504;6.300;2023-08-31T14:30:30;3.75;;;1.70;;
12476;SDS011;6303;51.504;6.300;2023-08-31T14:32:57;3.67;;;1.80;;
12476;SDS011;6303;51.504;6.300;2023-08-31T14:35:25;2.83;;;1.90;;
12476;SDS011;6303;51.504;6.300;2023-08-31T14:37:52;2.13;;;1.70;;
12476;SDS011;6303;51.504;6.300;2023-08-31T14:40:19;2.33;;;2.00;;
12476;SDS011;6303;51.504;6.300;2023-08-31T14:42:46;2.10;;;1.90;;
12476;SDS011;6303;51.504;6.300;2023-08-31T14:45:14;3.30;;;1.80;;
12476;SDS011;6303;51.504;6.300;2023-08-31T14:47:41;2.85;;;1.88;;
12476;SDS011;6303;51.504;6.300;2023-08-31T14:50:08;2.92;;;2.30;;
12476;SDS011;6303;51.504;6.300;2023-08-31T14:52:36;2.25;;;2.08;;
12476;SDS011;6303;51.504;6.300;2023-08-31T14:55:03;2.33;;;2.03;;
12476;SDS011;6303;51.504;6.300;2023-08-31T14:57:31;3.88;;;2.00;;
12476;SDS011;6303;51.504;6.300;2023-08-31T14:59:58;3.38;;;2.17;;
12476;SDS011;6303;51.504;6.300;2023-08-31T15:02:26;2.60;;;2.40;;
12476;SDS011;6303;51.504;6.300;2023-08-31T15:04:53;3.10;;;2.03;;
12476;SDS011;6303;51.504;6.300;2023-08-31T15:07:20;2.47;;;1.88;;
12476;SDS011;6303;51.504;6.300;2023-08-31T15:09:47;2.47;;;1.80;;
12476;SDS011;6303;51.504;6.300;2023-08-31T15:12:15;2.40;;;2.13;;